Time;durP1;ratioP1;P1;durP2;ratioP2;P2;SDS_P1;SDS_P2;PMS_P1;PMS_P2;Temp;Humidity;BMP_temperature;BMP_pressure;BME280_temperature;BME280_humidity;BME280_pressure;Samples;Min_cycle;Max_cycle;Signal;HPM_P1;HPM_P2
2023/01/14 00:01:32;;;;;;;4.10;0.85;;;10.90;70.40;;;;;;2340211;54;21693;-73
2023/01/14 00:04:00;;;;;;;4.57;1.00;;;10.90;70.40;;;;;;2395585;53;21011;-73
2023/01/14 00:06:28;;;;;;;3.37;0.90;;;10.90;70.40;;;;;;2497515;53;21315;-73
2023/01/14 00:09:06;;;;;;;3.17;0.90;;;10.80;70.30;;;;;;2340195;54;20942;-73
2023/01/14 00:11:51;;;;;;;2.55;0.82;;;10.90;70.10;;;;;;2339943;54;21651;-74
2023/01/14 00:14:22;;;;;;;4.75;1.00;;;10.90;70.20;;;;;;2536024;53;20938;-73
2023/01/14 00:16:51;;;;;;;2.22;0.62;;;10.90;70.10;;;;;;2477477;53;21372;-73
2023/01/14 00:19:18;;;;;;;3.50;0.85;;;10.90;70.10;;;;;;2340021;54;20955;-73
2023/01/14 00:21:45;;;;;;;4.70;0.98;;;10.90;70.10;;;;;;2340348;53;21685;-73
2023/01/14 00:24:12;;;;;;;3.62;0.85;;;10.80;70.00;;;;;;2435822;53;20985;-72
2023/01/14 00:26:39;;;;;;;3.67;0.98;;;10.80;69.90;;;;;;2386385;53;20999;-73
2023/01/14 00:29:06;;;;;;;3.28;0.85;;;10.80;69.90;;;;;;2336699;54;20927;-73
2023/01/14 00:31:33;;;;;;;2.87;0.60;;;10.80;69.90;;;;;;2339941;54;20963;-73
2023/01/14 00:33:59;;;;;;;3.55;0.70;;;10.80;69.80;;;;;;2340287;54;21547;-73
2023/01/14 00:36:44;;;;;;;3.55;0.55;;;10.80;69.70;;;;;;2340385;54;20958;-73
2023/01/14 00:39:10;;;;;;;1.62;0.50;;;10.70;69.00;;;;;;2325033;54;21321;-73
2023/01/14 00:41:37;;;;;;;3.72;0.62;;;10.70;69.50;;;;;;2487966;53;20995;-73
2023/01/14 00:44:04;;;;;;;5.93;0.90;;;10.70;69.40;;;;;;2341008;54;20957;-73
2023/01/14 00:46:31;;;;;;;2.00;0.62;;;10.60;69.30;;;;;;2339616;54;20948;-73
2023/01/14 00:48:59;;;;;;;5.80;0.70;;;10.60;69.20;;;;;;2338385;53;21011;-72
2023/01/14 00:51:25;;;;;;;2.78;0.70;;;10.60;69.30;;;;;;2338873;54;21812;-73
2023/01/14 00:53:52;;;;;;;3.60;0.57;;;10.60;69.30;;;;;;2338359;54;21377;-73
2023/01/14 00:56:21;;;;;;;4.37;0.70;;;10.60;69.40;;;;;;2338292;54;21491;-73
2023/01/14 00:58:47;;;;;;;4.55;0.68;;;10.50;69.30;;;;;;2371910;53;22183;-72
2023/01/14 01:01:17;;;;;;;3.85;0.70;;;10.60;69.40;;;;;;2350729;53;21523;-73
2023/01/14 01:03:47;;;;;;;1.90;0.55;;;10.50;69.30;;;;;;2338646;54;20947;-73
2023/01/14 01:06:14;;;;;;;2.05;0.60;;;10.50;69.40;;;;;;2338385;53;21046;-73
2023/01/14 01:08:44;;;;;;;4.07;0.75;;;10.50;69.40;;;;;;2338748;53;20943;-73
2023/01/14 01:11:13;;;;;;;4.15;0.60;;;10.50;69.50;;;;;;2338264;54;20979;-72
2023/01/14 01:13:39;;;;;;;2.62;0.60;;;10.50;69.60;;;;;;2405806;53;21010;-73
2023/01/14 01:16:13;;;;;;;2.50;0.57;;;10.50;69.60;;;;;;2447102;53;21066;-73
2023/01/14 01:18:40;;;;;;;2.87;0.52;;;10.50;69.60;;;;;;2415041;53;20999;-72
2023/01/14 01:21:12;;;;;;;1.70;0.55;;;10.40;69.50;;;;;;2339898;53;21004;-72
2023/01/14 01:23:40;;;;;;;3.28;0.65;;;10.40;69.60;;;;;;2393770;54;20955;-73
2023/01/14 01:26:15;;;;;;;1.95;0.50;;;10.40;69.60;;;;;;2471479;53;21336;-73
2023/01/14 01:28:43;;;;;;;1.62;0.43;;;10.40;69.50;;;;;;2340030;54;21981;-73
2023/01/14 01:31:12;;;;;;;2.47;0.45;;;10.40;69.70;;;;;;2315767;54;20964;-73
2023/01/14 01:33:40;;;;;;;2.08;0.62;;;10.40;69.60;;;;;;2340077;53;20950;-73
2023/01/14 01:36:15;;;;;;;3.80;0.70;;;10.40;69.70;;;;;;2340841;54;20951;-73
2023/01/14 01:38:42;;;;;;;2.50;0.73;;;10.40;69.40;;;;;;2318293;54;20972;-73
2023/01/14 01:41:28;;;;;;;2.60;0.60;;;10.40;69.60;;;;;;2341787;54;21034;-72
2023/01/14 01:46:32;;;;;;;1.90;0.60;;;10.40;69.50;;;;;;2342215;54;21007;-73
2023/01/14 01:49:17;;;;;;;0.93;0.35;;;10.40;68.40;;;;;;2341624;54;20979;-73
2023/01/14 01:52:38;;;;;;;2.67;0.60;;;10.40;69.40;;;;;;2422623;53;20943;-73
2023/01/14 01:55:08;;;;;;;1.37;0.43;;;10.40;69.40;;;;;;2341892;54;21528;-73
2023/01/14 01:57:34;;;;;;;2.20;0.60;;;10.30;69.60;;;;;;2588424;53;20970;-73
2023/01/14 02:00:04;;;;;;;1.80;0.55;;;10.40;69.80;;;;;;2559104;53;20980;-73
2023/01/14 02:02:31;;;;;;;2.67;0.43;;;10.30;69.80;;;;;;2341820;53;20966;-73
2023/01/14 02:04:57;;;;;;;3.17;0.70;;;10.30;69.90;;;;;;2341608;53;20998;-73
2023/01/14 02:07:25;;;;;;;3.00;0.57;;;10.30;69.90;;;;;;2340677;54;21086;-73
2023/01/14 02:10:01;;;;;;;5.07;0.60;;;10.40;70.00;;;;;;2340448;54;20899;-73
2023/01/14 02:13:31;;;;;;;4.43;0.70;;;10.40;69.80;;;;;;2340683;54;21010;-72
2023/01/14 02:22:50;;;;;;;3.08;0.60;;;10.40;69.10;;;;;;2586736;53;20927;-73
2023/01/14 02:30:13;;;;;;;1.87;0.47;;;10.40;70.10;;;;;;2339827;53;20959;-73
2023/01/14 02:35:39;;;;;;;2.53;0.65;;;10.50;69.10;;;;;;2341869;54;21321;-73
2023/01/14 02:38:17;;;;;;;1.60;0.60;;;10.40;70.10;;;;;;2342126;54;20923;-73
2023/01/14 02:40:49;;;;;;;4.82;0.98;;;10.50;70.30;;;;;;2342001;53;20955;-73
2023/01/14 02:46:19;;;;;;;2.90;1.00;;;10.40;70.40;;;;;;2341906;53;20939;-73
2023/01/14 02:48:46;;;;;;;3.00;0.82;;;10.50;70.60;;;;;;2341449;53;21693;-72
2023/01/14 02:51:12;;;;;;;4.87;1.10;;;10.50;70.70;;;;;;2341407;54;20943;-73
2023/01/14 02:53:41;;;;;;;2.92;0.65;;;10.50;71.00;;;;;;2341277;54;20957;-73
2023/01/14 02:56:09;;;;;;;3.40;0.90;;;10.50;70.70;;;;;;2341973;54;20931;-73
2023/01/14 02:58:46;;;;;;;6.50;1.12;;;10.50;70.70;;;;;;2341648;54;20955;-72
2023/01/14 03:01:50;;;;;;;6.37;0.75;;;10.60;70.50;;;;;;2342165;53;20992;-73
2023/01/14 03:07:57;;;;;;;5.65;0.98;;;10.50;70.00;;;;;;2355636;53;21081;-73
2023/01/14 03:10:29;;;;;;;3.55;0.88;;;10.60;69.40;;;;;;2341935;54;20931;-73
2023/01/14 03:13:17;;;;;;;6.03;0.90;;;10.60;71.20;;;;;;2523493;53;20959;-73
2023/01/14 03:18:25;;;;;;;4.55;0.95;;;10.70;70.20;;;;;;2345159;54;21272;-73
2023/01/14 03:21:12;;;;;;;4.35;0.90;;;10.70;69.40;;;;;;2541360;53;20931;-73
2023/01/14 03:23:42;;;;;;;5.72;1.02;;;10.60;70.10;;;;;;2341497;54;21015;-73
2023/01/14 03:26:08;;;;;;;5.00;1.08;;;10.70;70.60;;;;;;2341628;54;20972;-72
2023/01/14 03:28:38;;;;;;;6.70;1.15;;;10.60;70.50;;;;;;2341771;54;20947;-73
2023/01/14 03:31:11;;;;;;;7.47;1.40;;;10.70;70.60;;;;;;2403123;53;21400;-73
2023/01/14 03:33:44;;;;;;;5.25;1.00;;;10.70;70.50;;;;;;2346119;53;20931;-73
2023/01/14 03:36:10;;;;;;;4.30;0.88;;;10.70;70.70;;;;;;2341768;54;21054;-73
2023/01/14 03:38:52;;;;;;;5.53;1.17;;;10.70;70.70;;;;;;2377781;53;20939;-73
2023/01/14 03:42:17;;;;;;;4.18;1.20;;;10.70;70.70;;;;;;2341885;53;20982;-73
2023/01/14 03:45:21;;;;;;;8.02;1.25;;;10.70;70.70;;;;;;2342018;54;20995;-73
2023/01/14 03:47:51;;;;;;;7.00;1.05;;;10.70;70.00;;;;;;2345045;54;21002;-73
2023/01/14 03:50:19;;;;;;;5.25;1.20;;;10.70;70.50;;;;;;2337213;53;20918;-73
2023/01/14 03:54:24;;;;;;;7.10;1.33;;;10.70;70.50;;;;;;2342689;54;20979;-73
2023/01/14 03:57:15;;;;;;;5.47;0.82;;;10.80;70.50;;;;;;2403227;53;20943;-73
2023/01/14 04:01:42;;;;;;;7.57;1.20;;;10.80;70.10;;;;;;2341977;53;20986;-72
2023/01/14 04:04:08;;;;;;;8.10;1.30;;;10.80;69.30;;;;;;2341388;54;20980;-72
2023/01/14 04:06:35;;;;;;;8.98;1.12;;;10.80;70.40;;;;;;2343737;54;21008;-72
2023/01/14 04:09:03;;;;;;;8.68;1.30;;;10.80;70.40;;;;;;2338537;54;21051;-73
2023/01/14 04:11:36;;;;;;;5.90;0.98;;;10.80;70.40;;;;;;2341583;54;21659;-73
2023/01/14 04:16:47;;;;;;;8.45;1.12;;;10.80;70.30;;;;;;2344757;53;21318;-72
2023/01/14 04:19:14;;;;;;;4.72;1.02;;;10.80;70.40;;;;;;2341608;54;20947;-73
2023/01/14 04:21:40;;;;;;;6.55;1.00;;;10.80;70.40;;;;;;2341425;54;20923;-73
2023/01/14 04:24:07;;;;;;;5.57;1.17;;;10.80;70.40;;;;;;2340833;54;21626;-73
2023/01/14 04:26:33;;;;;;;5.00;1.02;;;10.80;70.40;;;;;;2341917;54;20927;-73
2023/01/14 04:28:59;;;;;;;7.50;1.10;;;10.80;70.40;;;;;;2341855;54;20961;-73
2023/01/14 04:31:26;;;;;;;6.10;1.12;;;10.80;70.40;;;;;;2341874;53;21236;-73
2023/01/14 04:33:54;;;;;;;11.00;1.67;;;10.80;70.40;;;;;;2341520;54;20952;-72
2023/01/14 04:36:21;;;;;;;10.93;1.48;;;10.80;70.30;;;;;;2532317;53;20947;-73
2023/01/14 04:38:48;;;;;;;6.43;1.30;;;10.80;70.30;;;;;;2385371;53;21890;-73
2023/01/14 04:43:59;;;;;;;5.97;1.12;;;10.80;70.40;;;;;;2439049;53;21022;-72
2023/01/14 04:46:26;;;;;;;6.68;0.95;;;10.80;70.40;;;;;;2347294;54;21886;-73
2023/01/14 04:48:53;;;;;;;8.18;1.45;;;10.80;70.40;;;;;;2416524;53;21432;-73
2023/01/14 04:51:19;;;;;;;6.80;1.27;;;10.80;70.40;;;;;;2341602;53;21374;-72
2023/01/14 04:53:45;;;;;;;9.07;1.55;;;10.80;70.40;;;;;;2341786;54;21014;-73
2023/01/14 04:56:13;;;;;;;4.68;1.23;;;10.80;70.40;;;;;;2340407;53;20958;-73
2023/01/14 04:58:39;;;;;;;6.32;1.25;;;10.80;70.40;;;;;;2341985;54;21022;-73
2023/01/14 05:01:06;;;;;;;5.82;1.08;;;10.90;70.50;;;;;;2341300;54;21006;-73
2023/01/14 05:03:32;;;;;;;7.15;1.83;;;10.90;70.50;;;;;;2446668;53;21028;-73
2023/01/14 05:05:59;;;;;;;9.05;1.90;;;10.80;70.40;;;;;;2348900;54;20920;-73
2023/01/14 05:08:25;;;;;;;5.90;1.40;;;10.90;70.60;;;;;;2571837;53;20923;-72
2023/01/14 05:10:51;;;;;;;4.72;1.25;;;10.90;70.60;;;;;;2341667;53;21499;-73
2023/01/14 05:13:18;;;;;;;6.93;1.10;;;10.90;70.60;;;;;;2516531;52;20941;-73
2023/01/14 05:15:44;;;;;;;8.75;1.30;;;10.90;70.60;;;;;;2587913;52;21517;-73
2023/01/14 05:18:12;;;;;;;4.18;1.17;;;10.90;70.70;;;;;;2346615;53;20946;-72
2023/01/14 05:20:39;;;;;;;7.70;1.08;;;11.00;70.80;;;;;;2587768;53;20955;-73
2023/01/14 05:23:16;;;;;;;6.15;1.10;;;11.00;70.70;;;;;;2341499;54;21034;-73
2023/01/14 05:25:42;;;;;;;7.15;1.10;;;11.00;70.70;;;;;;2561456;53;21805;-73
2023/01/14 05:28:13;;;;;;;6.82;0.93;;;11.00;70.70;;;;;;2341605;53;21430;-73
2023/01/14 05:30:40;;;;;;;4.60;1.05;;;11.00;70.60;;;;;;2342116;53;20926;-72
2023/01/14 05:33:06;;;;;;;5.25;1.05;;;11.00;70.70;;;;;;2343421;53;20973;-72
2023/01/14 05:35:32;;;;;;;5.05;1.30;;;11.10;70.80;;;;;;2511842;53;20895;-73
2023/01/14 05:37:59;;;;;;;6.43;1.10;;;11.10;70.70;;;;;;2587646;53;20927;-73
2023/01/14 05:40:25;;;;;;;7.87;1.40;;;11.10;70.70;;;;;;2341787;54;20963;-73
2023/01/14 05:45:48;;;;;;;4.28;0.90;;;11.10;70.70;;;;;;2341823;54;20947;-73
2023/01/14 05:48:22;;;;;;;9.38;1.65;;;11.20;70.60;;;;;;2341479;54;21525;-73
2023/01/14 05:50:52;;;;;;;4.35;0.93;;;11.20;70.50;;;;;;2318844;54;21011;-73
2023/01/14 05:53:20;;;;;;;4.75;1.23;;;11.20;70.60;;;;;;2318532;54;20955;-73
2023/01/14 05:55:46;;;;;;;7.72;1.02;;;11.20;70.60;;;;;;2342526;54;20915;-73
2023/01/14 05:58:13;;;;;;;5.93;1.85;;;11.30;70.70;;;;;;2341532;54;22130;-73
2023/01/14 06:06:48;;;;;;;6.70;1.60;;;11.30;70.70;;;;;;2503935;53;20991;-71
2023/01/14 06:09:24;;;;;;;4.65;1.10;;;11.40;69.80;;;;;;2341804;54;21043;-73
2023/01/14 06:12:02;;;;;;;6.85;1.30;;;11.40;70.70;;;;;;2341819;54;21026;-73
2023/01/14 06:14:31;;;;;;;5.05;1.10;;;11.40;70.70;;;;;;2341820;54;20970;-72
2023/01/14 06:16:58;;;;;;;5.82;1.00;;;11.40;70.50;;;;;;2341345;54;20950;-73
2023/01/14 06:19:59;;;;;;;5.03;1.30;;;11.40;70.70;;;;;;2341628;54;20915;-73
2023/01/14 06:22:25;;;;;;;2.78;1.00;;;11.50;70.10;;;;;;2341798;54;20911;-72
2023/01/14 06:24:52;;;;;;;6.62;1.10;;;11.50;70.70;;;;;;2341642;54;21476;-73
2023/01/14 06:27:18;;;;;;;3.97;0.90;;;11.50;70.60;;;;;;2341275;54;20939;-73
2023/01/14 06:29:46;;;;;;;5.00;1.40;;;11.50;70.70;;;;;;2341872;54;21512;-73
2023/01/14 06:32:13;;;;;;;4.35;1.10;;;11.50;70.70;;;;;;2341463;53;20919;-72
2023/01/14 06:34:40;;;;;;;3.08;0.70;;;11.50;70.70;;;;;;2410056;53;20948;-73
2023/01/14 06:37:06;;;;;;;3.25;0.80;;;11.50;70.80;;;;;;2342829;54;21018;-73
2023/01/14 06:39:34;;;;;;;4.00;0.90;;;11.60;70.90;;;;;;2341789;54;20931;-76
2023/01/14 06:42:01;;;;;;;6.50;0.70;;;11.60;70.80;;;;;;2353485;53;20935;-73
2023/01/14 06:44:27;;;;;;;6.45;0.88;;;11.60;70.70;;;;;;2342787;54;20967;-73
2023/01/14 06:46:55;;;;;;;3.85;0.93;;;11.60;70.70;;;;;;2341967;54;20931;-72
2023/01/14 06:49:21;;;;;;;4.12;0.80;;;11.60;70.60;;;;;;2341284;54;21923;-72
2023/01/14 06:51:49;;;;;;;4.75;0.90;;;11.70;70.70;;;;;;2342150;54;21492;-73
2023/01/14 06:54:15;;;;;;;4.25;0.98;;;11.70;70.50;;;;;;2343894;53;21085;-72
2023/01/14 06:56:42;;;;;;;2.67;0.70;;;11.70;70.50;;;;;;2341815;54;20940;-73
2023/01/14 06:59:09;;;;;;;3.83;1.10;;;11.70;70.50;;;;;;2353115;53;21062;-72
2023/01/14 07:01:35;;;;;;;3.78;1.00;;;11.70;70.30;;;;;;2341587;54;20931;-72
2023/01/14 07:04:04;;;;;;;4.40;0.85;;;11.70;70.30;;;;;;2357566;53;21003;-72
2023/01/14 07:06:30;;;;;;;4.90;0.70;;;11.70;70.30;;;;;;2473582;52;21362;-72
2023/01/14 07:08:56;;;;;;;4.45;1.20;;;11.70;70.40;;;;;;2587149;53;21050;-72
2023/01/14 07:11:23;;;;;;;4.20;0.77;;;11.70;70.40;;;;;;2341231;53;21588;-73
2023/01/14 07:13:50;;;;;;;5.90;1.00;;;11.70;70.30;;;;;;2372256;53;21401;-73
2023/01/14 07:16:16;;;;;;;4.65;0.90;;;11.70;70.20;;;;;;2340764;54;21765;-72
2023/01/14 07:18:42;;;;;;;6.07;1.10;;;11.80;70.30;;;;;;2461656;53;20884;-73
2023/01/14 07:21:09;;;;;;;4.93;1.02;;;11.80;70.30;;;;;;2413580;53;20995;-72
2023/01/14 07:23:35;;;;;;;5.10;1.20;;;11.80;70.30;;;;;;2587996;53;20978;-73
2023/01/14 07:26:02;;;;;;;6.78;1.12;;;11.80;70.30;;;;;;2341140;54;20943;-72
2023/01/14 07:28:28;;;;;;;6.53;1.52;;;11.80;70.30;;;;;;2341323;54;20963;-72
2023/01/14 07:30:55;;;;;;;6.43;1.20;;;11.80;70.30;;;;;;2438702;53;20982;-72
2023/01/14 07:33:22;;;;;;;6.25;1.70;;;11.80;70.30;;;;;;2382756;53;20947;-73
2023/01/14 07:35:52;;;;;;;4.07;1.20;;;11.80;70.30;;;;;;2588485;53;20952;-74
2023/01/14 07:38:19;;;;;;;5.03;1.50;;;11.80;70.40;;;;;;2587190;53;21884;-73
2023/01/14 07:40:45;;;;;;;5.15;1.50;;;11.90;70.50;;;;;;2341591;54;21440;-73
2023/01/14 07:43:12;;;;;;;5.28;1.52;;;11.90;70.60;;;;;;2379518;53;21555;-72
2023/01/14 07:45:41;;;;;;;5.25;1.20;;;11.90;70.60;;;;;;2587895;53;20931;-72
2023/01/14 07:48:08;;;;;;;8.13;1.67;;;11.90;70.50;;;;;;2341464;53;21934;-72
2023/01/14 07:50:37;;;;;;;4.90;2.25;;;11.90;70.60;;;;;;2587713;53;20954;-72
2023/01/14 07:53:03;;;;;;;6.60;3.08;;;12.00;70.50;;;;;;2341176;53;20947;-73
2023/01/14 07:55:30;;;;;;;4.32;2.35;;;12.00;70.70;;;;;;2341554;54;20932;-72
2023/01/14 07:57:58;;;;;;;5.30;2.58;;;12.00;70.80;;;;;;2466650;53;21744;-72
2023/01/14 08:00:24;;;;;;;6.03;2.72;;;12.00;70.80;;;;;;2317064;54;21874;-73
2023/01/14 08:02:50;;;;;;;5.87;2.20;;;12.00;70.70;;;;;;2344312;54;20942;-72
2023/01/14 08:05:17;;;;;;;5.80;2.00;;;12.10;70.80;;;;;;2341775;54;20912;-72
2023/01/14 08:07:44;;;;;;;4.12;2.12;;;12.10;70.80;;;;;;2341804;54;21408;-73
2023/01/14 08:10:11;;;;;;;4.10;1.73;;;12.10;70.80;;;;;;2341051;54;20998;-72
2023/01/14 08:12:38;;;;;;;5.60;1.65;;;12.10;70.80;;;;;;2588056;53;20975;-72
2023/01/14 08:15:06;;;;;;;4.55;1.83;;;12.20;71.50;;;;;;2341491;54;21436;-73
2023/01/14 08:17:33;;;;;;;3.95;1.50;;;12.20;70.90;;;;;;2359780;53;21549;-72
2023/01/14 08:19:59;;;;;;;3.95;1.15;;;12.20;70.80;;;;;;2346900;53;21003;-73
2023/01/14 08:22:28;;;;;;;6.85;1.40;;;12.20;70.80;;;;;;2341703;54;20915;-72
2023/01/14 08:24:55;;;;;;;5.32;1.42;;;12.20;70.80;;;;;;2341249;54;20907;-72
2023/01/14 08:27:22;;;;;;;6.62;1.75;;;12.30;71.00;;;;;;2437075;53;20977;-76
2023/01/14 08:29:51;;;;;;;3.47;1.08;;;12.30;70.90;;;;;;2339684;54;21702;-73
2023/01/14 08:32:18;;;;;;;3.70;1.12;;;12.30;71.00;;;;;;2587341;53;20908;-72
2023/01/14 08:34:48;;;;;;;4.28;1.10;;;12.30;71.00;;;;;;2342038;54;21027;-75
2023/01/14 08:37:18;;;;;;;5.95;1.62;;;12.40;71.20;;;;;;2341655;54;21647;-74
2023/01/14 08:39:44;;;;;;;2.75;1.00;;;12.40;71.20;;;;;;2341833;54;20910;-76
2023/01/14 08:42:14;;;;;;;6.18;1.12;;;12.40;71.20;;;;;;2341634;54;20974;-74
2023/01/14 08:44:41;;;;;;;2.50;0.80;;;12.50;71.20;;;;;;2343200;53;20924;-74
2023/01/14 08:47:07;;;;;;;2.20;0.80;;;12.50;71.30;;;;;;2416252;53;20931;-73
2023/01/14 08:49:33;;;;;;;3.55;1.00;;;12.50;71.30;;;;;;2336710;54;20971;-76
2023/01/14 08:52:00;;;;;;;2.05;0.90;;;12.60;71.50;;;;;;2336130;54;20919;-73
2023/01/14 08:54:26;;;;;;;2.12;0.65;;;12.60;71.40;;;;;;2335363;54;21050;-73
2023/01/14 08:56:56;;;;;;;2.25;0.68;;;12.60;71.40;;;;;;2336229;53;20919;-75
2023/01/14 08:59:23;;;;;;;2.60;0.57;;;12.70;71.40;;;;;;2336935;54;20948;-74
2023/01/14 09:01:49;;;;;;;6.30;1.00;;;12.70;71.40;;;;;;2483780;53;21003;-73
2023/01/14 09:04:20;;;;;;;3.37;0.80;;;12.80;71.50;;;;;;2335518;54;20955;-74
2023/01/14 09:17:58;;;;;;;2.78;0.82;;;13.00;70.90;;;;;;2422332;53;21046;-74
2023/01/14 09:20:35;;;;;;;3.90;0.90;;;13.00;71.40;;;;;;2336692;54;21755;-72
2023/01/14 09:23:02;;;;;;;3.20;0.70;;;13.10;71.00;;;;;;2366906;53;20939;-73
2023/01/14 09:25:28;;;;;;;2.53;0.85;;;13.10;71.20;;;;;;2336005;54;20979;-73
2023/01/14 09:27:59;;;;;;;4.82;0.90;;;13.10;71.20;;;;;;2520390;53;21456;-73
2023/01/14 09:30:26;;;;;;;1.33;0.50;;;13.10;71.10;;;;;;2336713;54;20903;-73
2023/01/14 09:32:52;;;;;;;1.50;0.50;;;13.20;71.10;;;;;;2395698;53;21365;-73
2023/01/14 09:35:18;;;;;;;2.15;0.60;;;13.20;70.90;;;;;;2338953;54;21820;-74
2023/01/14 09:37:45;;;;;;;2.05;0.60;;;13.20;70.90;;;;;;2338939;54;20947;-73
2023/01/14 09:40:13;;;;;;;2.42;0.50;;;13.20;70.90;;;;;;2429464;53;20947;-73
2023/01/14 09:42:45;;;;;;;3.00;0.70;;;13.30;70.90;;;;;;2402647;53;21070;-74
2023/01/14 09:45:27;;;;;;;1.92;0.50;;;13.30;71.40;;;;;;2339112;54;20994;-73
2023/01/14 09:47:54;;;;;;;2.37;0.57;;;13.30;70.30;;;;;;2585238;53;20935;-73
2023/01/14 09:51:53;;;;;;;2.78;0.60;;;13.30;70.90;;;;;;2339168;54;20939;-73
2023/01/14 09:54:45;;;;;;;1.77;0.45;;;13.30;70.80;;;;;;2339409;54;20963;-73
2023/01/14 09:57:24;;;;;;;1.45;0.50;;;13.40;70.40;;;;;;2339639;54;20923;-74
2023/01/14 10:00:03;;;;;;;2.85;0.70;;;13.40;70.60;;;;;;2386508;53;20935;-73
2023/01/14 10:02:48;;;;;;;2.80;0.80;;;13.40;70.20;;;;;;2475995;53;21448;-73
2023/01/14 10:05:22;;;;;;;5.00;1.20;;;13.40;70.20;;;;;;2585479;52;21927;-74
2023/01/14 10:07:48;;;;;;;7.78;3.53;;;13.40;70.20;;;;;;2339372;54;21362;-74
2023/01/14 10:10:35;;;;;;;6.18;2.62;;;13.40;70.60;;;;;;2339141;54;20939;-72
2023/01/14 10:13:22;;;;;;;4.45;1.83;;;13.50;70.10;;;;;;2340149;54;20955;-72
2023/01/14 10:16:56;;;;;;;2.97;1.00;;;13.50;69.90;;;;;;2340195;54;20900;-71
2023/01/14 10:19:42;;;;;;;2.33;1.10;;;13.50;69.20;;;;;;2450633;53;20983;-75
2023/01/14 10:22:29;;;;;;;4.20;1.62;;;13.60;70.10;;;;;;2338093;54;21014;-74
2023/01/14 10:24:56;;;;;;;5.50;2.28;;;13.50;69.70;;;;;;2340903;54;20946;-72
2023/01/14 10:27:23;;;;;;;4.57;1.50;;;13.50;70.50;;;;;;2503122;53;21058;-75
2023/01/14 10:29:49;;;;;;;3.58;1.40;;;13.60;70.60;;;;;;2584094;53;22033;-72
2023/01/14 10:32:18;;;;;;;4.68;1.87;;;13.60;70.60;;;;;;2337578;53;20927;-73
2023/01/14 10:34:49;;;;;;;3.58;1.08;;;13.60;70.90;;;;;;2338802;54;21003;-76
2023/01/14 10:37:16;;;;;;;3.30;0.93;;;13.60;70.50;;;;;;2338239;54;20931;-74
2023/01/14 10:39:47;;;;;;;2.83;0.90;;;13.60;70.60;;;;;;2471230;53;20935;-74
2023/01/14 10:42:13;;;;;;;1.90;0.80;;;13.60;70.30;;;;;;2453206;53;20931;-73
2023/01/14 10:44:43;;;;;;;2.40;0.85;;;13.60;70.50;;;;;;2337778;54;20950;-73
2023/01/14 10:47:13;;;;;;;2.95;1.30;;;13.70;70.50;;;;;;2338533;54;21297;-74
2023/01/14 10:49:56;;;;;;;2.50;1.33;;;13.70;70.30;;;;;;2340565;53;20959;-73
2023/01/14 10:52:32;;;;;;;2.58;0.95;;;13.70;69.50;;;;;;2339669;54;20975;-74
2023/01/14 10:55:01;;;;;;;4.70;1.67;;;13.70;69.80;;;;;;2339827;54;21500;-72
2023/01/14 10:57:34;;;;;;;3.37;1.10;;;13.70;70.30;;;;;;2585759;53;21559;-73
2023/01/14 11:00:00;;;;;;;2.50;1.00;;;13.70;70.20;;;;;;2339941;53;20939;-72
2023/01/14 11:02:37;;;;;;;2.30;1.00;;;13.70;70.40;;;;;;2391922;53;20947;-73
2023/01/14 11:05:39;;;;;;;2.65;0.98;;;13.80;69.70;;;;;;2340187;54;20931;-75
2023/01/14 11:08:22;;;;;;;3.12;1.30;;;13.80;69.40;;;;;;2340342;54;21929;-73
2023/01/14 11:11:03;;;;;;;2.08;0.80;;;13.80;69.70;;;;;;2339513;54;20915;-75
2023/01/14 11:13:31;;;;;;;3.60;1.05;;;13.80;69.60;;;;;;2478242;53;21464;-75
2023/01/14 11:15:57;;;;;;;1.60;0.60;;;13.80;70.30;;;;;;2379191;53;20906;-74
2023/01/14 11:18:32;;;;;;;2.05;0.75;;;13.80;70.30;;;;;;2393631;53;21436;-72
2023/01/14 11:21:07;;;;;;;3.75;0.98;;;13.80;70.20;;;;;;2337026;54;21622;-73
2023/01/14 11:23:38;;;;;;;2.67;0.70;;;13.80;70.50;;;;;;2336371;54;20943;-75
2023/01/14 11:26:27;;;;;;;4.12;0.85;;;13.90;69.90;;;;;;2397905;53;21575;-75
2023/01/14 11:29:13;;;;;;;3.67;1.00;;;13.90;69.10;;;;;;2338393;54;20975;-73
2023/01/14 11:31:39;;;;;;;1.55;0.50;;;13.90;69.50;;;;;;2337935;54;21382;-76
2023/01/14 11:34:17;;;;;;;3.42;0.80;;;13.90;70.00;;;;;;2337786;54;20979;-73
2023/01/14 11:36:43;;;;;;;2.50;0.62;;;13.90;69.40;;;;;;2337520;53;21019;-71
2023/01/14 11:39:13;;;;;;;1.70;0.65;;;13.90;69.90;;;;;;2336923;53;21233;-74
2023/01/14 11:41:39;;;;;;;2.42;0.60;;;13.90;69.80;;;;;;2338442;53;21038;-73
2023/01/14 11:46:44;;;;;;;3.92;0.60;;;13.90;69.90;;;;;;2382312;53;20966;-71
2023/01/14 11:49:21;;;;;;;1.65;0.50;;;14.00;68.30;;;;;;2482868;53;20986;-75
2023/01/14 11:51:58;;;;;;;1.58;0.65;;;14.00;69.60;;;;;;2339888;53;20931;-74
2023/01/14 11:54:31;;;;;;;2.12;0.68;;;14.00;69.30;;;;;;2414895;54;21464;-73
2023/01/14 11:56:58;;;;;;;2.75;0.80;;;14.00;70.00;;;;;;2354082;53;21059;-72
2023/01/14 11:59:49;;;;;;;1.73;0.50;;;14.00;70.00;;;;;;2339469;54;20955;-74
2023/01/14 12:02:27;;;;;;;1.62;0.30;;;14.00;69.70;;;;;;2384532;53;20959;-75
2023/01/14 12:05:00;;;;;;;0.88;0.40;;;14.00;69.70;;;;;;2339738;53;20913;-72
2023/01/14 12:07:39;;;;;;;2.75;0.68;;;14.00;69.70;;;;;;2405512;54;21574;-73
2023/01/14 12:10:15;;;;;;;2.95;0.70;;;14.10;69.20;;;;;;2368817;53;20967;-73
2023/01/14 12:19:17;;;;;;;2.45;0.62;;;14.10;69.00;;;;;;2338073;54;20919;-76
2023/01/14 12:21:55;;;;;;;1.58;0.50;;;14.10;69.30;;;;;;2383122;53;21259;-73
2023/01/14 12:24:29;;;;;;;1.42;0.57;;;14.10;69.20;;;;;;2337312;53;22133;-74
2023/01/14 12:26:56;;;;;;;1.52;0.60;;;14.10;69.10;;;;;;2338152;54;21422;-73
2023/01/14 12:29:25;;;;;;;2.95;0.77;;;14.10;69.60;;;;;;2337906;53;21307;-73
2023/01/14 12:31:59;;;;;;;4.12;0.70;;;14.10;69.40;;;;;;2338392;53;20947;-74
2023/01/14 12:34:45;;;;;;;3.87;0.70;;;14.10;69.30;;;;;;2337421;53;21038;-75
2023/01/14 12:37:39;;;;;;;1.65;0.60;;;14.10;68.00;;;;;;2491849;53;20911;-73
2023/01/14 12:47:03;;;;;;;2.40;0.55;;;14.20;68.10;;;;;;2339509;53;21337;-73
2023/01/14 12:49:31;;;;;;;2.50;0.50;;;14.20;68.60;;;;;;2585166;53;20983;-73
2023/01/14 12:51:57;;;;;;;2.10;0.60;;;14.20;69.40;;;;;;2316315;54;21749;-73
2023/01/14 12:54:27;;;;;;;2.80;0.77;;;14.20;69.40;;;;;;2339021;54;21110;-73
2023/01/14 12:56:54;;;;;;;2.03;0.60;;;14.20;69.30;;;;;;2340701;54;21699;-75
2023/01/14 12:59:41;;;;;;;2.33;0.77;;;14.20;69.20;;;;;;2339643;54;20895;-72
2023/01/14 13:02:54;;;;;;;2.60;0.47;;;14.20;68.00;;;;;;2339858;54;20970;-73
2023/01/14 13:05:34;;;;;;;1.87;0.80;;;14.20;67.20;;;;;;2339745;54;20903;-73
2023/01/14 13:08:02;;;;;;;5.05;0.70;;;14.20;68.80;;;;;;2339759;53;20955;-72
2023/01/14 13:10:31;;;;;;;1.33;0.50;;;14.20;69.00;;;;;;2366353;53;20997;-73
2023/01/14 13:12:57;;;;;;;1.17;0.45;;;14.30;69.00;;;;;;2340112;54;20919;-75
2023/01/14 13:15:26;;;;;;;1.75;0.57;;;14.30;69.70;;;;;;2338942;54;21406;-71
2023/01/14 13:17:54;;;;;;;4.15;0.70;;;14.30;69.00;;;;;;2394033;53;20970;-72
2023/01/14 13:20:54;;;;;;;1.23;0.40;;;14.30;69.00;;;;;;2337509;54;21756;-75
2023/01/14 13:23:57;;;;;;;2.20;0.60;;;14.30;67.10;;;;;;2337613;54;22495;-75
2023/01/14 13:26:59;;;;;;;1.20;0.40;;;14.30;67.50;;;;;;2337941;54;21018;-74
2023/01/14 13:29:27;;;;;;;1.75;0.50;;;14.30;67.10;;;;;;2338025;54;20963;-73
2023/01/14 13:31:55;;;;;;;2.90;0.70;;;14.30;68.60;;;;;;2338858;54;20938;-75
2023/01/14 13:34:46;;;;;;;1.80;0.60;;;14.30;68.50;;;;;;2357050;53;21026;-74
2023/01/14 13:37:16;;;;;;;3.22;1.50;;;14.30;66.70;;;;;;2348494;53;21135;-73
2023/01/14 13:39:49;;;;;;;2.62;0.85;;;14.30;68.20;;;;;;2337996;54;20984;-72
2023/01/14 13:42:23;;;;;;;4.40;1.10;;;14.30;68.10;;;;;;2337052;54;21353;-73
2023/01/14 13:44:51;;;;;;;2.28;0.60;;;14.30;67.80;;;;;;2583572;53;20943;-72
2023/01/14 13:47:32;;;;;;;1.65;0.52;;;14.30;68.30;;;;;;2339093;54;20955;-74
2023/01/14 13:50:18;;;;;;;3.03;1.00;;;14.30;68.00;;;;;;2339658;54;21018;-74
2023/01/14 13:52:50;;;;;;;3.92;0.98;;;14.30;69.00;;;;;;2459934;53;21535;-72
2023/01/14 13:55:35;;;;;;;3.45;1.10;;;14.30;68.30;;;;;;2339502;54;20938;-75
2023/01/14 13:58:15;;;;;;;2.62;0.90;;;14.30;67.70;;;;;;2339763;53;20927;-76
2023/01/14 14:00:44;;;;;;;2.75;0.73;;;14.30;68.10;;;;;;2339182;54;20947;-75
2023/01/14 14:03:38;;;;;;;1.58;0.57;;;14.30;68.20;;;;;;2338276;53;21487;-72
2023/01/14 14:09:36;;;;;;;0.73;0.30;;;14.30;66.50;;;;;;2337422;53;21610;-75
2023/01/14 14:15:56;;;;;;;2.72;0.40;;;14.30;66.20;;;;;;2344447;53;20944;-73
2023/01/14 14:18:35;;;;;;;2.30;0.60;;;14.40;66.50;;;;;;2336445;54;20951;-73
2023/01/14 14:21:02;;;;;;;3.33;0.50;;;14.30;67.60;;;;;;2337601;54;20934;-76
2023/01/14 14:23:37;;;;;;;1.23;0.47;;;14.30;68.20;;;;;;2435219;53;20967;-76
2023/01/14 14:26:14;;;;;;;1.48;0.50;;;14.30;67.50;;;;;;2338895;53;21610;-74
2023/01/14 14:28:41;;;;;;;2.55;0.60;;;14.30;67.90;;;;;;2336709;54;20951;-73
2023/01/14 14:31:13;;;;;;;1.80;0.60;;;14.30;68.20;;;;;;2337115;54;20994;-73
2023/01/14 14:33:41;;;;;;;1.73;0.60;;;14.30;68.20;;;;;;2373636;53;20959;-75